Time;durP1;ratioP1;P1;durP2;ratioP2;P2;SDS_P1;SDS_P2;PMS_P1;PMS_P2;Temp;Humidity;BMP_temperature;BMP_pressure;BME280_temperature;BME280_humidity;BME280_pressure;Samples;Min_cycle;Max_cycle;Signal;HPM_P1;HPM_P2
2022/09/13 00:00:41;;;;;;;1.00;0.80;;;;;;;;;;5022968;28;20030;-46
2022/09/13 00:03:08;;;;;;;1.80;0.90;;;;;;;;;;5021076;28;20061;-47
2022/09/13 00:05:35;;;;;;;2.47;0.82;;;;;;;;;;5027820;28;20470;-45
2022/09/13 00:08:01;;;;;;;1.70;1.13;;;;;;;;;;5050359;28;20033;-46
2022/09/13 00:10:27;;;;;;;2.63;1.10;;;;;;;;;;5048348;28;20029;-53
2022/09/13 00:12:53;;;;;;;1.25;1.15;;;;;;;;;;5044349;28;20021;-46
2022/09/13 00:15:20;;;;;;;2.95;0.90;;;;;;;;;;5048639;28;20025;-47
2022/09/13 00:17:46;;;;;;;1.67;0.95;;;;;;;;;;5051105;28;20112;-46
2022/09/13 00:20:12;;;;;;;1.27;0.88;;;;;;;;;;5052296;28;20092;-46
2022/09/13 00:22:38;;;;;;;1.52;1.00;;;;;;;;;;5051147;28;20385;-46
2022/09/13 00:25:05;;;;;;;1.40;0.90;;;;;;;;;;5051793;28;20035;-46
2022/09/13 00:27:32;;;;;;;2.55;1.08;;;;;;;;;;5043882;28;20029;-52
2022/09/13 00:29:58;;;;;;;2.63;0.90;;;;;;;;;;5051914;28;20029;-46
2022/09/13 00:32:24;;;;;;;2.45;0.90;;;;;;;;;;5060348;28;20107;-46
2022/09/13 00:34:50;;;;;;;2.17;1.10;;;;;;;;;;5063074;28;20017;-46
2022/09/13 00:37:16;;;;;;;2.65;1.08;;;;;;;;;;5051367;28;20489;-49
2022/09/13 00:39:42;;;;;;;1.60;0.95;;;;;;;;;;5068337;28;20048;-46
2022/09/13 00:42:11;;;;;;;1.27;0.80;;;;;;;;;;5071120;28;20021;-46
2022/09/13 00:44:51;;;;;;;1.20;1.00;;;;;;;;;;5050940;28;20087;-47
2022/09/13 00:47:20;;;;;;;1.02;0.80;;;;;;;;;;5051846;28;20037;-46
2022/09/13 00:49:47;;;;;;;1.13;0.98;;;;;;;;;;5050798;28;20420;-47
2022/09/13 00:52:15;;;;;;;2.05;1.17;;;;;;;;;;5063568;28;20376;-46
2022/09/13 00:54:51;;;;;;;1.45;1.10;;;;;;;;;;5050781;28;20075;-47
2022/09/13 00:57:19;;;;;;;1.73;1.00;;;;;;;;;;5056508;28;20040;-46
2022/09/13 00:59:47;;;;;;;1.30;0.80;;;;;;;;;;5051198;28;20467;-46
2022/09/13 01:02:14;;;;;;;1.83;0.93;;;;;;;;;;5066105;28;20032;-46
2022/09/13 01:04:40;;;;;;;2.03;0.95;;;;;;;;;;5071269;28;20032;-46
2022/09/13 01:07:08;;;;;;;1.30;0.90;;;;;;;;;;5055703;28;20060;-46
2022/09/13 01:09:36;;;;;;;1.42;0.93;;;;;;;;;;5049145;28;20103;-50
2022/09/13 01:12:11;;;;;;;1.80;0.98;;;;;;;;;;5051009;28;20029;-46
2022/09/13 01:14:37;;;;;;;1.95;0.98;;;;;;;;;;5051259;28;20496;-46
2022/09/13 01:17:03;;;;;;;1.10;0.85;;;;;;;;;;5048950;28;20033;-46
2022/09/13 01:19:29;;;;;;;2.47;1.08;;;;;;;;;;5038206;28;20433;-46
2022/09/13 01:21:58;;;;;;;1.02;0.85;;;;;;;;;;5054693;28;20100;-46
2022/09/13 01:24:33;;;;;;;0.95;0.70;;;;;;;;;;5054925;28;20029;-46
2022/09/13 01:27:18;;;;;;;3.08;0.98;;;;;;;;;;5060048;28;20041;-46
2022/09/13 01:30:02;;;;;;;4.03;0.70;;;;;;;;;;5068884;28;20025;-46
2022/09/13 01:32:28;;;;;;;0.98;0.85;;;;;;;;;;5059403;28;20067;-46
2022/09/13 01:34:57;;;;;;;1.67;0.88;;;;;;;;;;5054029;28;20057;-46
2022/09/13 01:37:32;;;;;;;2.55;0.82;;;;;;;;;;5065215;28;20082;-46
2022/09/13 01:39:58;;;;;;;1.10;0.85;;;;;;;;;;5073930;28;20036;-46
2022/09/13 01:42:27;;;;;;;1.65;1.42;;;;;;;;;;5073888;28;20029;-47
2022/09/13 01:45:05;;;;;;;1.17;0.88;;;;;;;;;;5056206;28;20025;-46
2022/09/13 01:47:40;;;;;;;0.82;0.80;;;;;;;;;;5053993;28;20116;-46
2022/09/13 01:50:06;;;;;;;0.90;0.70;;;;;;;;;;5051143;28;20714;-46
2022/09/13 01:52:51;;;;;;;1.70;1.15;;;;;;;;;;5053559;28;20070;-53
2022/09/13 01:55:26;;;;;;;1.05;0.88;;;;;;;;;;5062760;28;20063;-46
2022/09/13 01:58:13;;;;;;;1.55;0.80;;;;;;;;;;5058006;28;20055;-46
2022/09/13 02:01:00;;;;;;;1.02;0.90;;;;;;;;;;5053086;28;20486;-46
2022/09/13 02:03:31;;;;;;;1.20;0.80;;;;;;;;;;5053266;28;20551;-46
2022/09/13 02:06:20;;;;;;;0.80;0.68;;;;;;;;;;5053784;28;20973;-46
2022/09/13 02:08:48;;;;;;;1.58;0.75;;;;;;;;;;5035066;28;20536;-46
2022/09/13 02:11:24;;;;;;;1.02;0.90;;;;;;;;;;5053524;28;20424;-46
2022/09/13 02:13:53;;;;;;;0.77;0.70;;;;;;;;;;5046717;28;20053;-46
2022/09/13 02:16:25;;;;;;;1.10;0.88;;;;;;;;;;5050950;28;20079;-46
2022/09/13 02:18:54;;;;;;;1.15;0.75;;;;;;;;;;5052770;28;20052;-48
2022/09/13 02:21:23;;;;;;;1.33;0.90;;;;;;;;;;5052354;28;20025;-46
2022/09/13 02:24:00;;;;;;;0.98;0.52;;;;;;;;;;5049099;28;20119;-46
2022/09/13 02:26:27;;;;;;;0.65;0.60;;;;;;;;;;5051348;28;20047;-46
2022/09/13 02:28:55;;;;;;;0.90;0.70;;;;;;;;;;5052676;28;20079;-46
2022/09/13 02:31:26;;;;;;;1.13;0.90;;;;;;;;;;5053031;28;20029;-46
2022/09/13 02:34:03;;;;;;;1.98;0.70;;;;;;;;;;5052513;28;20060;-46
2022/09/13 02:36:31;;;;;;;0.90;0.70;;;;;;;;;;5053391;28;20032;-46
2022/09/13 02:39:00;;;;;;;3.10;1.23;;;;;;;;;;5040743;28;20045;-46
2022/09/13 02:41:37;;;;;;;1.83;0.60;;;;;;;;;;5049904;28;20032;-45
2022/09/13 02:44:06;;;;;;;2.45;0.95;;;;;;;;;;5052863;28;20077;-46
2022/09/13 02:46:35;;;;;;;1.33;0.70;;;;;;;;;;5052503;28;20043;-46
2022/09/13 02:49:12;;;;;;;1.10;0.80;;;;;;;;;;5048033;28;20026;-46
2022/09/13 02:51:38;;;;;;;0.70;0.70;;;;;;;;;;5052407;28;20023;-52
2022/09/13 02:54:08;;;;;;;1.65;0.77;;;;;;;;;;5053158;28;20037;-46
2022/09/13 02:57:04;;;;;;;1.00;0.70;;;;;;;;;;5052831;28;20169;-47
2022/09/13 02:59:30;;;;;;;2.30;0.65;;;;;;;;;;5031355;28;20099;-46
2022/09/13 03:02:10;;;;;;;1.48;0.90;;;;;;;;;;5049257;28;20564;-47
2022/09/13 03:04:36;;;;;;;1.08;0.68;;;;;;;;;;5049581;28;20561;-53
2022/09/13 03:07:06;;;;;;;1.17;0.80;;;;;;;;;;5053073;28;20052;-46
2022/09/13 03:09:32;;;;;;;1.52;0.88;;;;;;;;;;5060449;28;20035;-49
2022/09/13 03:12:14;;;;;;;2.33;0.90;;;;;;;;;;5055224;28;20525;-46
2022/09/13 03:14:43;;;;;;;1.60;0.90;;;;;;;;;;5052347;28;20027;-53
2022/09/13 03:17:12;;;;;;;1.80;0.80;;;;;;;;;;5041267;28;20355;-47
2022/09/13 03:19:57;;;;;;;2.28;1.08;;;;;;;;;;5055659;28;20046;-51
2022/09/13 03:22:41;;;;;;;1.45;0.95;;;;;;;;;;5072029;28;20473;-46
2022/09/13 03:25:42;;;;;;;2.90;0.80;;;;;;;;;;5071852;28;20481;-46
2022/09/13 03:28:27;;;;;;;3.92;1.10;;;;;;;;;;5010075;28;20120;-46
2022/09/13 03:30:57;;;;;;;1.13;1.00;;;;;;;;;;5061280;28;20401;-46
2022/09/13 03:33:31;;;;;;;1.95;0.80;;;;;;;;;;5070641;28;20025;-46
2022/09/13 03:36:05;;;;;;;1.08;0.80;;;;;;;;;;5068665;28;20030;-46
2022/09/13 03:38:39;;;;;;;1.67;1.08;;;;;;;;;;5071838;28;20035;-46
2022/09/13 03:41:10;;;;;;;1.10;0.90;;;;;;;;;;5071579;28;20104;-46
2022/09/13 03:43:36;;;;;;;1.35;0.82;;;;;;;;;;5071923;28;20028;-45
2022/09/13 03:46:04;;;;;;;2.00;0.85;;;;;;;;;;5052651;28;20024;-46
2022/09/13 03:48:31;;;;;;;1.70;0.90;;;;;;;;;;5052304;28;20182;-46
2022/09/13 03:50:57;;;;;;;1.67;0.80;;;;;;;;;;5070937;28;20074;-46
2022/09/13 03:53:25;;;;;;;1.65;0.80;;;;;;;;;;5071966;28;20048;-46
2022/09/13 03:55:51;;;;;;;1.13;0.80;;;;;;;;;;5063981;28;20033;-46
2022/09/13 03:58:18;;;;;;;1.33;0.82;;;;;;;;;;5052210;28;20057;-47
2022/09/13 04:00:44;;;;;;;1.90;1.00;;;;;;;;;;5067791;28;20038;-46
2022/09/13 04:03:11;;;;;;;2.72;1.13;;;;;;;;;;5057825;28;20025;-46
2022/09/13 04:05:37;;;;;;;1.58;1.00;;;;;;;;;;5051940;28;20033;-49
2022/09/13 04:08:04;;;;;;;1.50;0.93;;;;;;;;;;5051200;28;20144;-47
2022/09/13 04:10:31;;;;;;;1.40;1.05;;;;;;;;;;5051134;28;20025;-53
2022/09/13 04:12:58;;;;;;;1.23;0.82;;;;;;;;;;5050499;28;20040;-47
2022/09/13 04:15:24;;;;;;;5.22;1.88;;;;;;;;;;5048900;28;20032;-47
2022/09/13 04:17:50;;;;;;;1.58;0.90;;;;;;;;;;5050520;28;20025;-50
2022/09/13 04:20:16;;;;;;;1.52;0.75;;;;;;;;;;5042100;28;20028;-49
2022/09/13 04:22:42;;;;;;;1.13;1.00;;;;;;;;;;5051498;28;20107;-54
2022/09/13 04:25:09;;;;;;;1.63;0.80;;;;;;;;;;5051433;28;20110;-51
2022/09/13 04:27:35;;;;;;;1.65;1.02;;;;;;;;;;5051072;28;20029;-49
2022/09/13 04:30:01;;;;;;;1.52;0.95;;;;;;;;;;5043496;28;20100;-46
2022/09/13 04:32:28;;;;;;;2.60;1.10;;;;;;;;;;5051364;28;20360;-49
2022/09/13 04:34:54;;;;;;;2.28;1.05;;;;;;;;;;5043638;28;20060;-48
2022/09/13 04:37:20;;;;;;;3.20;1.42;;;;;;;;;;5050976;28;20064;-47
2022/09/13 04:39:46;;;;;;;1.17;0.85;;;;;;;;;;5045828;28;20382;-46
2022/09/13 04:42:13;;;;;;;2.15;0.90;;;;;;;;;;5050248;28;20028;-46
2022/09/13 04:44:39;;;;;;;1.30;0.90;;;;;;;;;;5050908;28;20490;-46
2022/09/13 04:47:07;;;;;;;1.92;1.08;;;;;;;;;;5049957;28;20036;-46
2022/09/13 04:49:33;;;;;;;1.88;1.10;;;;;;;;;;5051223;28;20029;-46
2022/09/13 04:51:58;;;;;;;2.45;1.00;;;;;;;;;;5049847;28;20029;-46
2022/09/13 04:54:25;;;;;;;2.13;1.10;;;;;;;;;;5050468;28;20040;-46
2022/09/13 04:56:51;;;;;;;1.52;1.10;;;;;;;;;;5050357;28;20036;-46
2022/09/13 04:59:17;;;;;;;3.00;0.95;;;;;;;;;;5051210;28;20029;-46
2022/09/13 05:01:43;;;;;;;1.58;1.20;;;;;;;;;;5050371;28;20025;-53
2022/09/13 05:04:09;;;;;;;2.45;0.88;;;;;;;;;;5046372;28;20085;-46
2022/09/13 05:06:35;;;;;;;2.08;0.93;;;;;;;;;;5050248;28;20052;-46
2022/09/13 05:09:02;;;;;;;2.60;1.00;;;;;;;;;;5049257;28;20025;-46
2022/09/13 05:11:28;;;;;;;5.07;2.35;;;;;;;;;;5057130;28;20147;-46
2022/09/13 05:13:55;;;;;;;3.60;1.55;;;;;;;;;;5069830;28;20413;-46
2022/09/13 05:16:23;;;;;;;3.17;1.20;;;;;;;;;;5066733;28;20104;-47
2022/09/13 05:18:50;;;;;;;3.13;1.30;;;;;;;;;;5066028;28;20493;-47
2022/09/13 05:21:16;;;;;;;4.35;1.73;;;;;;;;;;5053506;28;20036;-45
2022/09/13 05:23:42;;;;;;;3.75;1.50;;;;;;;;;;5051207;28;20017;-47
2022/09/13 05:26:08;;;;;;;2.25;1.30;;;;;;;;;;5050519;28;20029;-47
2022/09/13 05:28:35;;;;;;;2.90;1.35;;;;;;;;;;5055270;28;20028;-53
2022/09/13 05:31:03;;;;;;;1.55;1.20;;;;;;;;;;5038843;28;20068;-46
2022/09/13 05:33:30;;;;;;;1.80;1.10;;;;;;;;;;5052107;28;20036;-47
2022/09/13 05:35:56;;;;;;;2.28;1.30;;;;;;;;;;5040942;28;20079;-46
2022/09/13 05:38:23;;;;;;;4.53;2.08;;;;;;;;;;5059668;28;20025;-46
2022/09/13 05:40:55;;;;;;;2.03;1.30;;;;;;;;;;5059245;28;20025;-49
2022/09/13 05:43:21;;;;;;;3.03;1.85;;;;;;;;;;5036251;28;20040;-45
2022/09/13 05:45:47;;;;;;;5.93;1.58;;;;;;;;;;5054092;28;20029;-54
2022/09/13 05:48:13;;;;;;;4.75;1.88;;;;;;;;;;5023286;28;20080;-47
2022/09/13 05:50:39;;;;;;;3.80;1.45;;;;;;;;;;5053755;28;20456;-46
2022/09/13 05:53:05;;;;;;;5.10;1.40;;;;;;;;;;5037768;28;20113;-45
2022/09/13 05:55:32;;;;;;;2.70;1.35;;;;;;;;;;5047446;28;20025;-45
2022/09/13 05:57:58;;;;;;;2.20;1.30;;;;;;;;;;5049035;28;20033;-45
2022/09/13 06:00:24;;;;;;;4.75;1.42;;;;;;;;;;5054975;28;20035;-45
2022/09/13 06:02:49;;;;;;;4.20;1.65;;;;;;;;;;5059386;28;20020;-46
2022/09/13 06:05:16;;;;;;;3.38;1.65;;;;;;;;;;5053479;28;20104;-46
2022/09/13 06:07:42;;;;;;;2.67;1.52;;;;;;;;;;5055827;28;20112;-46
2022/09/13 06:10:09;;;;;;;4.63;1.30;;;;;;;;;;5067647;28;20124;-45
2022/09/13 06:12:35;;;;;;;5.55;1.50;;;;;;;;;;5053387;28;20059;-48
2022/09/13 06:15:01;;;;;;;3.28;1.38;;;;;;;;;;5041699;28;20021;-49
2022/09/13 06:17:27;;;;;;;6.25;1.23;;;;;;;;;;5027858;28;20466;-47
2022/09/13 06:19:53;;;;;;;5.85;1.17;;;;;;;;;;5050709;28;20104;-47
2022/09/13 06:22:19;;;;;;;2.47;1.92;;;;;;;;;;5049588;28;20033;-47
2022/09/13 06:24:45;;;;;;;1.88;1.30;;;;;;;;;;5051324;28;20393;-48
2022/09/13 06:27:11;;;;;;;4.15;1.55;;;;;;;;;;5044702;28;20029;-46
2022/09/13 06:29:37;;;;;;;6.50;2.63;;;;;;;;;;5044402;28;20458;-46
2022/09/13 06:32:03;;;;;;;3.95;2.05;;;;;;;;;;5044219;28;20079;-46
2022/09/13 06:34:29;;;;;;;3.75;2.03;;;;;;;;;;5043777;28;20029;-46
2022/09/13 06:36:55;;;;;;;4.95;2.40;;;;;;;;;;5051531;28;20083;-46
2022/09/13 06:39:21;;;;;;;5.70;2.13;;;;;;;;;;5052134;28;20040;-46
2022/09/13 06:41:47;;;;;;;4.70;1.77;;;;;;;;;;5044320;28;20021;-52
2022/09/13 06:44:13;;;;;;;5.47;2.22;;;;;;;;;;5044083;28;20109;-48
2022/09/13 06:46:39;;;;;;;6.10;1.92;;;;;;;;;;5053018;28;20040;-51
2022/09/13 06:49:07;;;;;;;6.55;2.40;;;;;;;;;;5047909;28;20025;-49
2022/09/13 06:51:34;;;;;;;2.22;2.00;;;;;;;;;;5050550;28;20111;-46
2022/09/13 06:54:02;;;;;;;11.32;2.10;;;;;;;;;;5043199;28;20177;-46
2022/09/13 06:56:29;;;;;;;5.07;1.85;;;;;;;;;;5049695;28;20038;-48
2022/09/13 06:58:56;;;;;;;5.30;2.05;;;;;;;;;;5041168;28;20021;-47
2022/09/13 07:01:30;;;;;;;6.05;1.98;;;;;;;;;;5045219;28;20381;-50
2022/09/13 07:04:00;;;;;;;5.40;1.80;;;;;;;;;;5049345;28;20084;-46
2022/09/13 07:06:27;;;;;;;5.97;2.55;;;;;;;;;;5051702;28;20128;-47
2022/09/13 07:08:54;;;;;;;3.90;2.40;;;;;;;;;;5044094;28;20044;-50
2022/09/13 07:11:21;;;;;;;4.15;2.17;;;;;;;;;;5051647;28;20100;-46
2022/09/13 07:13:51;;;;;;;5.35;2.25;;;;;;;;;;5050530;28;20029;-51
2022/09/13 07:16:18;;;;;;;7.50;2.08;;;;;;;;;;5049895;28;20025;-48
2022/09/13 07:18:44;;;;;;;6.38;2.15;;;;;;;;;;5042549;28;20461;-50
2022/09/13 07:21:10;;;;;;;3.47;2.03;;;;;;;;;;5040324;28;20053;-49
2022/09/13 07:23:38;;;;;;;3.65;1.77;;;;;;;;;;5046385;28;20030;-47
2022/09/13 07:26:05;;;;;;;3.30;2.10;;;;;;;;;;5048019;28;20036;-49
2022/09/13 07:28:36;;;;;;;4.88;2.00;;;;;;;;;;5048970;28;20043;-49
2022/09/13 07:31:08;;;;;;;2.88;1.65;;;;;;;;;;5042167;28;20104;-51
2022/09/13 07:33:34;;;;;;;3.65;1.67;;;;;;;;;;5047183;28;20071;-49
2022/09/13 07:36:02;;;;;;;4.80;2.33;;;;;;;;;;5037906;28;20026;-51
2022/09/13 07:38:28;;;;;;;3.83;1.77;;;;;;;;;;5049929;28;20063;-49
2022/09/13 07:40:56;;;;;;;4.72;1.80;;;;;;;;;;5046157;28;20032;-45
2022/09/13 07:43:22;;;;;;;4.50;1.27;;;;;;;;;;5044012;28;20028;-50
2022/09/13 07:45:56;;;;;;;2.95;1.30;;;;;;;;;;5051113;28;20726;-54
2022/09/13 07:48:22;;;;;;;3.30;1.42;;;;;;;;;;5049935;28;20033;-54
2022/09/13 07:51:02;;;;;;;4.82;1.67;;;;;;;;;;5050609;28;20549;-53
2022/09/13 07:53:28;;;;;;;4.10;1.40;;;;;;;;;;5041897;28;20025;-46
2022/09/13 07:55:59;;;;;;;6.35;1.50;;;;;;;;;;5045851;28;20056;-49
2022/09/13 07:58:25;;;;;;;2.13;1.60;;;;;;;;;;5045044;28;20037;-50
2022/09/13 08:00:51;;;;;;;5.28;1.95;;;;;;;;;;5046112;28;20462;-47
2022/09/13 08:03:17;;;;;;;3.58;1.10;;;;;;;;;;5044885;28;20116;-46
2022/09/13 08:05:43;;;;;;;1.80;1.42;;;;;;;;;;5050774;28;20033;-53
2022/09/13 08:08:09;;;;;;;3.90;1.10;;;;;;;;;;5046083;28;20049;-50
2022/09/13 08:10:35;;;;;;;3.65;1.58;;;;;;;;;;5048003;28;20017;-48
2022/09/13 08:13:01;;;;;;;3.33;1.30;;;;;;;;;;5050047;28;20035;-51
2022/09/13 08:15:27;;;;;;;3.20;1.63;;;;;;;;;;5051413;28;20032;-49
2022/09/13 08:17:53;;;;;;;3.60;1.60;;;;;;;;;;5048991;28;20122;-52
2022/09/13 08:20:19;;;;;;;3.58;1.63;;;;;;;;;;5049630;28;20475;-50
2022/09/13 08:22:45;;;;;;;3.80;1.40;;;;;;;;;;5048180;28;20599;-55
2022/09/13 08:25:12;;;;;;;4.35;2.30;;;;;;;;;;5047263;28;20029;-48
2022/09/13 08:27:37;;;;;;;3.17;1.48;;;;;;;;;;5044777;28;20029;-49
2022/09/13 08:30:04;;;;;;;4.05;1.20;;;;;;;;;;5049390;28;20048;-51
2022/09/13 08:32:30;;;;;;;2.63;1.20;;;;;;;;;;5050062;28;20466;-50
2022/09/13 08:34:56;;;;;;;2.92;1.30;;;;;;;;;;5044488;28;20032;-47
2022/09/13 08:37:22;;;;;;;3.85;1.85;;;;;;;;;;5046999;28;20562;-48
2022/09/13 08:39:48;;;;;;;3.92;1.42;;;;;;;;;;5050523;28;20029;-55
2022/09/13 08:42:22;;;;;;;2.55;1.40;;;;;;;;;;5049472;28;20086;-47
2022/09/13 08:44:51;;;;;;;2.00;1.23;;;;;;;;;;5047234;28;20051;-54
2022/09/13 08:47:27;;;;;;;3.80;1.52;;;;;;;;;;5051340;28;20504;-47
2022/09/13 08:50:03;;;;;;;2.63;1.27;;;;;;;;;;5045782;28;20060;-48
2022/09/13 08:52:32;;;;;;;3.10;1.20;;;;;;;;;;5049942;28;20124;-48
2022/09/13 08:55:00;;;;;;;4.72;1.30;;;;;;;;;;5049674;28;20029;-52
2022/09/13 08:57:31;;;;;;;1.98;1.55;;;;;;;;;;5053212;28;20474;-46
2022/09/13 08:59:57;;;;;;;3.38;1.92;;;;;;;;;;5056909;28;20028;-48
2022/09/13 09:02:42;;;;;;;2.45;1.27;;;;;;;;;;5053253;28;20040;-47
2022/09/13 09:05:24;;;;;;;2.10;1.30;;;;;;;;;;5053709;28;20275;-46
2022/09/13 09:08:02;;;;;;;1.60;1.05;;;;;;;;;;5048052;28;20057;-54
2022/09/13 09:10:28;;;;;;;2.13;1.27;;;;;;;;;;5045675;28;20031;-47
2022/09/13 09:13:18;;;;;;;1.70;1.00;;;;;;;;;;5049962;28;20028;-47
2022/09/13 09:15:48;;;;;;;4.13;1.23;;;;;;;;;;5045709;28;20099;-49
2022/09/13 09:18:23;;;;;;;2.13;1.38;;;;;;;;;;5048620;28;20112;-49
2022/09/13 09:20:52;;;;;;;1.92;1.05;;;;;;;;;;5053609;28;20413;-54
2022/09/13 09:23:21;;;;;;;2.40;1.98;;;;;;;;;;5054858;28;20032;-49
2022/09/13 09:25:49;;;;;;;3.60;1.27;;;;;;;;;;5049659;28;20105;-54
2022/09/13 09:28:17;;;;;;;1.98;1.30;;;;;;;;;;5051514;28;20118;-47
2022/09/13 09:30:48;;;;;;;3.03;1.05;;;;;;;;;;5050279;28;20029;-47
2022/09/13 09:33:33;;;;;;;2.05;1.00;;;;;;;;;;5050132;28;20036;-48
2022/09/13 09:36:10;;;;;;;2.53;1.38;;;;;;;;;;5049407;28;20021;-50
2022/09/13 09:38:41;;;;;;;2.42;1.20;;;;;;;;;;5046392;28;20366;-48
2022/09/13 09:41:34;;;;;;;6.20;1.93;;;;;;;;;;5046543;28;20025;-48
2022/09/13 09:44:10;;;;;;;2.65;1.00;;;;;;;;;;5045700;28;20044;-51
2022/09/13 09:46:37;;;;;;;2.75;1.27;;;;;;;;;;5052062;28;20082;-49
2022/09/13 09:52:13;;;;;;;2.03;1.08;;;;;;;;;;5041012;28;20040;-47
2022/09/13 09:54:40;;;;;;;3.30;1.40;;;;;;;;;;5052210;28;20045;-52
2022/09/13 09:57:06;;;;;;;1.80;1.20;;;;;;;;;;5053158;28;20047;-50
2022/09/13 09:59:33;;;;;;;2.53;1.23;;;;;;;;;;5046432;28;20022;-51
2022/09/13 10:02:00;;;;;;;4.03;1.85;;;;;;;;;;5052522;28;20088;-51
2022/09/13 10:04:27;;;;;;;1.58;0.98;;;;;;;;;;5053507;28;20171;-50
2022/09/13 10:07:20;;;;;;;2.03;1.10;;;;;;;;;;5050100;28;20053;-50
2022/09/13 10:10:05;;;;;;;1.73;1.13;;;;;;;;;;5029935;28;20052;-55
2022/09/13 10:12:33;;;;;;;3.17;1.40;;;;;;;;;;5054022;28;20079;-48
2022/09/13 10:15:07;;;;;;;1.95;1.23;;;;;;;;;;5034622;28;20395;-47
2022/09/13 10:17:33;;;;;;;1.77;1.20;;;;;;;;;;5053589;28;20101;-48
2022/09/13 10:20:04;;;;;;;2.20;1.10;;;;;;;;;;5052564;28;20049;-49
2022/09/13 10:22:31;;;;;;;1.38;1.02;;;;;;;;;;5047416;28;20474;-46
2022/09/13 10:25:21;;;;;;;1.30;0.90;;;;;;;;;;5046688;28;20371;-51
2022/09/13 10:27:53;;;;;;;3.38;1.25;;;;;;;;;;5045682;28;20047;-54
2022/09/13 10:30:25;;;;;;;1.52;1.10;;;;;;;;;;5049223;28;20021;-50
2022/09/13 10:32:54;;;;;;;6.50;2.38;;;;;;;;;;5048745;28;20021;-51
2022/09/13 10:35:21;;;;;;;6.68;1.13;;;;;;;;;;5045389;28;20032;-49
2022/09/13 10:37:47;;;;;;;2.45;0.90;;;;;;;;;;5048360;28;20066;-54
2022/09/13 10:40:18;;;;;;;1.75;0.98;;;;;;;;;;5052285;28;20298;-51
2022/09/13 10:42:44;;;;;;;;;;;;;;;;;;5050950;28;20071;-48
2022/09/13 10:45:21;;;;;;;2.00;1.13;;;;;;;;;;5050700;28;19913;-52
2022/09/13 10:47:48;;;;;;;1.67;1.02;;;;;;;;;;5053661;28;20545;-54
2022/09/13 10:50:19;;;;;;;2.38;1.30;;;;;;;;;;5049736;28;20029;-48
2022/09/13 10:52:55;;;;;;;3.10;1.20;;;;;;;;;;5052661;28;20047;-49
2022/09/13 10:55:27;;;;;;;2.35;1.08;;;;;;;;;;5050878;28;20036;-49
2022/09/13 10:57:55;;;;;;;2.88;1.42;;;;;;;;;;5048817;28;20457;-49
2022/09/13 11:00:23;;;;;;;1.95;1.02;;;;;;;;;;5041678;28;20067;-51
2022/09/13 11:02:55;;;;;;;9.20;2.10;;;;;;;;;;5051890;28;20028;-55
2022/09/13 11:05:21;;;;;;;;;;;;;;;;;;5046953;28;20025;-48
2022/09/13 11:08:06;;;;;;;3.10;1.30;;;;;;;;;;5047728;28;19920;-56
2022/09/13 11:10:32;;;;;;;2.63;1.13;;;;;;;;;;5052373;28;20028;-48
2022/09/13 11:13:17;;;;;;;3.10;1.30;;;;;;;;;;5047423;28;20163;-50
2022/09/13 11:15:57;;;;;;;3.63;1.13;;;;;;;;;;5051243;28;20668;-51
2022/09/13 11:18:26;;;;;;;2.53;1.00;;;;;;;;;;5050932;28;20067;-50
2022/09/13 11:21:05;;;;;;;2.30;1.65;;;;;;;;;;5044955;28;20470;-48
2022/09/13 11:23:50;;;;;;;3.22;1.13;;;;;;;;;;5045050;28;20060;-50
2022/09/13 11:26:48;;;;;;;2.83;1.38;;;;;;;;;;5050197;28;20033;-47
2022/09/13 11:29:29;;;;;;;2.90;0.90;;;;;;;;;;5015519;28;20121;-50
2022/09/13 11:31:58;;;;;;;3.73;1.10;;;;;;;;;;5052741;28;20103;-49
2022/09/13 11:34:35;;;;;;;3.28;1.40;;;;;;;;;;5046665;28;20098;-53
2022/09/13 11:37:10;;;;;;;2.25;1.10;;;;;;;;;;5054290;28;20028;-50
2022/09/13 11:39:35;;;;;;;2.78;1.13;;;;;;;;;;5043556;28;20098;-49
2022/09/13 11:42:07;;;;;;;11.13;1.67;;;;;;;;;;5049833;28;20474;-51
2022/09/13 11:44:47;;;;;;;1.92;1.10;;;;;;;;;;5051614;28;20086;-47
2022/09/13 11:47:16;;;;;;;2.35;1.00;;;;;;;;;;5050585;28;20034;-50
2022/09/13 11:50:09;;;;;;;5.00;1.05;;;;;;;;;;5045507;28;20101;-51
2022/09/13 11:52:43;;;;;;;2.20;1.08;;;;;;;;;;5020312;28;20037;-52
2022/09/13 11:55:18;;;;;;;5.10;1.20;;;;;;;;;;5050995;28;20842;-53
2022/09/13 11:57:49;;;;;;;2.28;1.23;;;;;;;;;;5051271;28;20055;-51
2022/09/13 12:00:22;;;;;;;4.88;1.05;;;;;;;;;;5048630;28;20036;-49
2022/09/13 12:02:57;;;;;;;1.73;0.82;;;;;;;;;;5042526;28;20017;-55
2022/09/13 12:05:26;;;;;;;1.30;0.90;;;;;;;;;;5051050;28;20041;-48
2022/09/13 12:07:54;;;;;;;2.30;1.00;;;;;;;;;;5044156;28;20127;-51
2022/09/13 12:10:24;;;;;;;1.52;1.20;;;;;;;;;;5052729;28;20585;-48
2022/09/13 12:12:51;;;;;;;1.50;1.00;;;;;;;;;;5041749;28;20031;-55
2022/09/13 12:15:24;;;;;;;1.77;1.10;;;;;;;;;;5051069;28;20104;-50
2022/09/13 12:17:54;;;;;;;3.38;0.98;;;;;;;;;;5048514;28;20104;-55
2022/09/13 12:20:19;;;;;;;2.92;1.05;;;;;;;;;;5050372;28;20513;-47
2022/09/13 12:22:47;;;;;;;1.90;1.00;;;;;;;;;;5050614;28;20112;-47
2022/09/13 12:25:22;;;;;;;1.20;1.00;;;;;;;;;;5043401;28;20039;-50
2022/09/13 12:27:53;;;;;;;1.60;1.00;;;;;;;;;;5050632;28;20033;-52
2022/09/13 12:30:21;;;;;;;1.83;1.25;;;;;;;;;;5043188;28;20421;-50
2022/09/13 12:32:47;;;;;;;2.33;1.00;;;;;;;;;;5045974;28;20029;-54
2022/09/13 12:35:16;;;;;;;2.78;1.17;;;;;;;;;;5048875;28;20029;-49
2022/09/13 12:37:58;;;;;;;1.13;0.93;;;;;;;;;;5051367;28;20037;-52
2022/09/13 12:40:44;;;;;;;1.55;0.85;;;;;;;;;;5050344;28;20027;-51
2022/09/13 12:43:10;;;;;;;2.22;0.82;;;;;;;;;;5042810;28;20037;-49
2022/09/13 12:45:42;;;;;;;1.98;1.10;;;;;;;;;;5045766;28;20485;-51
2022/09/13 12:48:08;;;;;;;2.67;0.90;;;;;;;;;;5048111;28;20676;-50
2022/09/13 12:50:45;;;;;;;1.48;0.82;;;;;;;;;;5050682;28;20104;-49
2022/09/13 12:53:11;;;;;;;2.90;1.00;;;;;;;;;;5054173;28;20373;-49
2022/09/13 12:55:40;;;;;;;1.20;0.80;;;;;;;;;;5049800;28;20100;-51
2022/09/13 12:58:16;;;;;;;2.03;1.00;;;;;;;;;;5047119;28;20399;-47
2022/09/13 13:01:04;;;;;;;2.20;1.00;;;;;;;;;;5054133;28;20060;-48
2022/09/13 13:03:33;;;;;;;2.88;1.13;;;;;;;;;;5053335;28;20025;-49
2022/09/13 13:06:18;;;;;;;2.22;0.80;;;;;;;;;;5041078;28;20048;-49
2022/09/13 13:08:49;;;;;;;2.05;0.68;;;;;;;;;;5051947;28;20045;-51
2022/09/13 13:11:16;;;;;;;1.52;0.90;;;;;;;;;;5055263;28;20036;-49
2022/09/13 13:13:59;;;;;;;2.13;0.90;;;;;;;;;;5049733;28;20092;-47
2022/09/13 13:16:25;;;;;;;2.65;0.98;;;;;;;;;;5050326;28;20029;-50
2022/09/13 13:18:52;;;;;;;1.92;0.93;;;;;;;;;;5053669;28;20370;-51
2022/09/13 13:21:30;;;;;;;2.65;0.75;;;;;;;;;;5053735;28;20033;-48
2022/09/13 13:24:15;;;;;;;2.55;1.10;;;;;;;;;;5044909;28;20037;-51
2022/09/13 13:26:57;;;;;;;1.30;0.85;;;;;;;;;;5053901;28;20409;-49
2022/09/13 13:29:24;;;;;;;1.45;0.70;;;;;;;;;;5048615;28;20087;-48
2022/09/13 13:32:02;;;;;;;2.53;1.02;;;;;;;;;;5048722;28;20428;-53
2022/09/13 13:34:42;;;;;;;2.85;0.85;;;;;;;;;;5049278;28;20030;-48
2022/09/13 13:37:08;;;;;;;3.90;0.90;;;;;;;;;;5049487;28;20029;-48
2022/09/13 13:39:41;;;;;;;2.28;1.33;;;;;;;;;;5051880;28;20036;-51
2022/09/13 13:42:13;;;;;;;2.22;1.27;;;;;;;;;;5050698;28;20189;-47
2022/09/13 13:44:42;;;;;;;1.48;0.82;;;;;;;;;;5050453;28;20025;-48
2022/09/13 13:47:08;;;;;;;3.20;1.50;;;;;;;;;;5045345;28;20108;-47
2022/09/13 13:49:34;;;;;;;2.22;0.80;;;;;;;;;;5053008;28;20131;-49
2022/09/13 13:52:23;;;;;;;3.25;1.00;;;;;;;;;;5053038;28;20044;-51
2022/09/13 13:54:57;;;;;;;3.58;1.00;;;;;;;;;;4998642;28;20029;-53
2022/09/13 13:57:25;;;;;;;6.10;1.10;;;;;;;;;;5039592;28;20445;-49
2022/09/13 13:59:54;;;;;;;2.38;1.27;;;;;;;;;;5051749;28;20494;-53
2022/09/13 14:02:22;;;;;;;2.15;0.95;;;;;;;;;;5040183;28;20041;-51
2022/09/13 14:04:51;;;;;;;6.80;0.93;;;;;;;;;;5047184;28;20025;-56
2022/09/13 14:07:28;;;;;;;1.90;0.88;;;;;;;;;;5038909;28;20076;-53
2022/09/13 14:09:59;;;;;;;7.50;1.65;;;;;;;;;;5051897;28;20462;-48
2022/09/13 14:12:32;;;;;;;3.33;0.80;;;;;;;;;;5040404;28;20128;-47
2022/09/13 14:15:02;;;;;;;3.05;1.02;;;;;;;;;;5037920;28;20027;-50
2022/09/13 14:17:31;;;;;;;0.77;0.52;;;;;;;;;;5051558;28;20041;-47
2022/09/13 14:20:05;;;;;;;8.80;1.55;;;;;;;;;;5050690;28;20024;-48
2022/09/13 14:22:31;;;;;;;1.35;0.75;;;;;;;;;;5050028;28;20500;-50
2022/09/13 14:24:58;;;;;;;6.28;1.02;;;;;;;;;;5049309;28;20021;-52
2022/09/13 14:27:29;;;;;;;4.43;1.35;;;;;;;;;;5040533;28;20063;-47
2022/09/13 14:29:57;;;;;;;1.70;0.93;;;;;;;;;;5045907;28;20139;-50
2022/09/13 14:32:24;;;;;;;3.53;1.08;;;;;;;;;;5037825;28;20067;-50
2022/09/13 14:35:00;;;;;;;4.93;1.27;;;;;;;;;;5035560;28;20097;-46
2022/09/13 14:37:36;;;;;;;2.15;0.98;;;;;;;;;;5044296;28;20029;-48
2022/09/13 14:40:11;;;;;;;4.38;1.30;;;;;;;;;;5042485;28;20052;-47
2022/09/13 14:42:41;;;;;;;2.67;0.90;;;;;;;;;;5040657;28;20444;-47
2022/09/13 14:45:12;;;;;;;3.65;1.00;;;;;;;;;;5051264;28;20096;-48
2022/09/13 14:47:58;;;;;;;2.63;0.90;;;;;;;;;;5044536;28;20184;-45
2022/09/13 14:50:28;;;;;;;5.15;0.82;;;;;;;;;;5051945;28;20106;-49
2022/09/13 14:52:56;;;;;;;1.90;0.65;;;;;;;;;;5052223;28;20040;-46
2022/09/13 14:55:26;;;;;;;2.17;0.60;;;;;;;;;;5051324;28;20029;-47
2022/09/13 14:57:57;;;;;;;4.47;0.80;;;;;;;;;;5032462;28;20037;-54
2022/09/13 15:00:24;;;;;;;2.80;1.07;;;;;;;;;;5048593;28;20151;-47
2022/09/13 15:02:58;;;;;;;3.90;0.75;;;;;;;;;;5050268;28;20033;-54
2022/09/13 15:05:26;;;;;;;1.33;0.70;;;;;;;;;;5052693;28;20028;-46